aviador You're here:

KMYJ Decoded Metar

in
Report Time2017-09-24 01:15:00
UTC Time2017-09-24 01:26:48
Flight Rules vfr VFR
Wind100° at 03 kt
W.Decomp.*RWY 06: 2.3 kt HW 1.9 kt RCW
RWY 18: 0.5 kt HW 3 kt LCW
W.Rank100° ranks 20
Current wind is below 100° avg. (5.2)
Visibility9999 m
Phenomena:N/A
Clouds:N/A
Expected CloudBase > 2,400 ft AGL from Temp-Dew spread
CeilingNone
Temp23°C
Dew Point17°C (69% RH)
QNH1016 hPa
Raw Report
KMYJ 240115Z AUTO 10003KT 7SM CLR 23/17 A2999 RMK AO2=

Extra information for KMYJ:More info

Social comments